createdAt,value
2018-07-12T00:00:29.309Z,4.70
2018-07-12T00:02:56.543Z,4.10
2018-07-12T00:05:22.776Z,3.70
2018-07-12T00:07:49.067Z,4.00
2018-07-12T00:10:15.279Z,4.30
2018-07-12T00:12:41.390Z,3.80
2018-07-12T00:15:08.192Z,3.93
2018-07-12T00:17:34.339Z,4.17
2018-07-12T00:20:01.211Z,4.60
2018-07-12T00:22:27.360Z,4.23
2018-07-12T00:24:53.508Z,4.70
2018-07-12T00:27:19.658Z,3.83
2018-07-12T00:29:46.878Z,4.17
2018-07-12T00:32:13.703Z,4.23
2018-07-12T00:34:39.800Z,4.67
2018-07-12T00:37:05.975Z,4.07
2018-07-12T00:39:32.166Z,4.30
2018-07-12T00:41:58.309Z,4.30
2018-07-12T00:44:24.467Z,4.90
2018-07-12T00:46:54.312Z,4.40
2018-07-12T00:49:21.175Z,4.00
2018-07-12T00:51:47.331Z,5.30
2018-07-12T00:54:13.517Z,3.80
2018-07-12T00:56:39.723Z,3.80
2018-07-12T00:59:05.880Z,3.70
2018-07-12T01:01:32.186Z,4.00
2018-07-12T01:03:59.443Z,3.83
2018-07-12T01:06:25.674Z,3.95
2018-07-12T01:08:51.820Z,4.07
2018-07-12T01:11:18.008Z,4.30
2018-07-12T01:13:46.694Z,3.80
2018-07-12T01:16:15.891Z,3.30
2018-07-12T01:18:42.247Z,3.80
2018-07-12T01:21:08.440Z,3.90
2018-07-12T01:23:36.604Z,3.70
2018-07-12T01:26:05.822Z,3.90
2018-07-12T01:28:33.680Z,3.90
2018-07-12T01:30:59.968Z,3.87
2018-07-12T01:33:27.210Z,4.10
2018-07-12T01:35:53.497Z,4.00
2018-07-12T01:38:21.710Z,4.03
2018-07-12T01:40:49.728Z,3.27
2018-07-12T01:43:16.675Z,3.37
2018-07-12T01:45:42.810Z,4.10
2018-07-12T01:48:08.984Z,4.47
2018-07-12T01:50:35.100Z,4.40
2018-07-12T01:53:02.220Z,4.33
2018-07-12T01:55:28.355Z,4.50
2018-07-12T01:57:55.234Z,4.83
2018-07-12T02:00:23.422Z,5.03
2018-07-12T02:02:49.574Z,4.40
2018-07-12T02:05:16.038Z,4.77
2018-07-12T02:07:42.271Z,4.60
2018-07-12T02:10:09.496Z,4.47
2018-07-12T02:12:35.700Z,4.50
2018-07-12T02:15:02.886Z,4.50
2018-07-12T02:17:33.676Z,5.20
2018-07-12T02:20:00.931Z,5.00
2018-07-12T02:22:30.149Z,5.07
2018-07-12T02:24:57.348Z,5.00
2018-07-12T02:27:26.448Z,5.22
2018-07-12T02:29:52.638Z,5.00
2018-07-12T02:32:19.857Z,5.12
2018-07-12T02:34:46.021Z,4.60
2018-07-12T02:37:13.233Z,5.25
2018-07-12T02:39:42.347Z,5.15
2018-07-12T02:42:09.283Z,4.67
2018-07-12T02:44:36.467Z,4.97
2018-07-12T02:47:02.745Z,5.10
2018-07-12T02:49:28.873Z,5.00
2018-07-12T02:51:55.015Z,5.10
2018-07-12T02:54:21.166Z,4.57
2018-07-12T02:56:47.340Z,4.60
2018-07-12T02:59:18.716Z,4.50
2018-07-12T03:01:46.813Z,5.20
2018-07-12T03:04:12.943Z,5.27
2018-07-12T03:06:39.126Z,5.07
2018-07-12T03:09:06.478Z,4.95
2018-07-12T03:11:34.566Z,5.00
2018-07-12T03:14:00.744Z,5.08
2018-07-12T03:16:26.921Z,4.90
2018-07-12T03:18:55.200Z,4.90
2018-07-12T03:21:24.396Z,4.40
2018-07-12T03:23:50.559Z,4.63
2018-07-12T03:26:16.705Z,4.83
2018-07-12T03:28:42.862Z,5.00
2018-07-12T03:31:11.090Z,5.27
2018-07-12T03:33:38.751Z,5.13
2018-07-12T03:36:04.919Z,5.40
2018-07-12T03:38:32.170Z,4.93
2018-07-12T03:40:59.256Z,5.73
2018-07-12T03:43:25.420Z,5.10
2018-07-12T03:45:51.591Z,5.10
2018-07-12T03:48:19.252Z,5.30
2018-07-12T03:50:47.450Z,5.23
2018-07-12T03:53:14.275Z,5.87
2018-07-12T03:55:40.438Z,5.17
2018-07-12T03:58:08.357Z,5.20
2018-07-12T04:00:37.496Z,5.58
2018-07-12T04:03:04.744Z,5.57
2018-07-12T04:05:32.836Z,5.73
2018-07-12T04:08:02.486Z,5.40
2018-07-12T04:10:32.723Z,5.70
2018-07-12T04:12:59.901Z,5.50
2018-07-12T04:15:26.758Z,5.70
2018-07-12T04:17:53.833Z,5.23
2018-07-12T04:20:20.006Z,5.83
2018-07-12T04:22:46.717Z,5.13
2018-07-12T04:25:12.857Z,5.10
2018-07-12T04:27:40.091Z,5.70
2018-07-12T04:30:08.288Z,5.20
2018-07-12T04:32:34.403Z,5.50
2018-07-12T04:35:00.481Z,5.60
2018-07-12T04:37:26.550Z,4.40
2018-07-12T04:39:52.640Z,5.17
2018-07-12T04:42:18.695Z,5.20
2018-07-12T04:44:45.779Z,4.80
2018-07-12T04:47:11.855Z,5.10
2018-07-12T04:49:37.955Z,5.00
2018-07-12T04:52:04.038Z,5.03
2018-07-12T04:54:30.127Z,5.30
2018-07-12T04:56:56.723Z,5.47
2018-07-12T04:59:22.927Z,5.30
2018-07-12T05:01:49.328Z,5.47
2018-07-12T05:04:15.459Z,5.90
2018-07-12T05:06:41.536Z,4.83
2018-07-12T05:09:08.746Z,5.47
2018-07-12T05:11:34.824Z,5.70
2018-07-12T05:14:04.221Z,5.93
2018-07-12T05:16:30.299Z,5.40
2018-07-12T05:18:56.382Z,5.53
2018-07-12T05:21:22.466Z,6.17
2018-07-12T05:23:48.802Z,5.90
2018-07-12T05:26:14.883Z,5.90
2018-07-12T05:28:40.973Z,6.40
2018-07-12T05:31:07.107Z,6.07
2018-07-12T05:33:33.177Z,6.10
2018-07-12T05:36:00.080Z,5.53
2018-07-12T05:38:27.287Z,5.97
2018-07-12T05:40:56.476Z,6.20
2018-07-12T05:43:23.393Z,5.10
2018-07-12T05:45:50.400Z,6.23
2018-07-12T05:48:17.324Z,6.00
2018-07-12T05:50:49.684Z,5.83
2018-07-12T05:53:17.867Z,6.43
2018-07-12T05:55:44.770Z,5.77
2018-07-12T05:58:11.740Z,5.40
2018-07-12T06:00:38.863Z,5.97
2018-07-12T06:03:05.720Z,5.60
2018-07-12T06:05:32.615Z,5.47
2018-07-12T06:07:59.527Z,6.20
2018-07-12T06:10:27.398Z,6.30
2018-07-12T06:12:54.292Z,7.30
2018-07-12T06:15:21.190Z,7.03
2018-07-12T06:17:48.101Z,7.23
2018-07-12T06:20:15.043Z,9.10
2018-07-12T06:22:42.022Z,9.30
2018-07-12T06:25:08.892Z,9.10
2018-07-12T06:27:36.740Z,10.13
2018-07-12T06:30:04.551Z,9.83
2018-07-12T06:32:31.376Z,10.57
2018-07-12T06:34:58.273Z,9.90
2018-07-12T06:37:25.163Z,10.07
2018-07-12T06:39:53.057Z,10.07
2018-07-12T06:42:19.951Z,10.53
2018-07-12T06:44:46.867Z,13.07
2018-07-12T06:47:14.743Z,11.80
2018-07-12T06:49:41.680Z,12.47
2018-07-12T06:52:08.670Z,13.17
2018-07-12T06:54:35.554Z,13.30
2018-07-12T06:57:02.587Z,12.90
2018-07-12T06:59:29.500Z,13.33
2018-07-12T07:01:56.475Z,12.37
2018-07-12T07:04:23.364Z,11.70
2018-07-12T07:06:50.256Z,11.30
2018-07-12T07:09:17.169Z,12.17
2018-07-12T07:11:44.094Z,12.80
2018-07-12T07:14:11.027Z,11.30
2018-07-12T07:16:37.927Z,12.40
2018-07-12T07:19:04.868Z,12.80
2018-07-12T07:21:31.966Z,11.67
2018-07-12T07:23:59.032Z,10.23
2018-07-12T07:26:25.992Z,9.97
2018-07-12T07:28:52.877Z,11.20
2018-07-12T07:31:19.860Z,11.10
2018-07-12T07:33:46.765Z,10.13
2018-07-12T07:36:13.693Z,11.25
2018-07-12T07:38:40.896Z,11.50
2018-07-12T07:41:07.839Z,10.60
2018-07-12T07:43:34.747Z,9.93
2018-07-12T07:46:01.650Z,9.40
2018-07-12T07:48:29.177Z,9.53
2018-07-12T07:50:56.076Z,9.80
2018-07-12T07:53:22.980Z,9.50
2018-07-12T07:55:49.888Z,9.33
2018-07-12T07:58:16.793Z,8.27
2018-07-12T08:00:43.694Z,8.73
2018-07-12T08:03:10.608Z,7.73
2018-07-12T08:05:38.536Z,8.53
2018-07-12T08:08:05.823Z,8.23
2018-07-12T08:10:32.735Z,8.50
2018-07-12T08:12:59.645Z,7.97
2018-07-12T08:15:26.539Z,6.73
2018-07-12T08:17:53.466Z,7.33
2018-07-12T08:20:21.545Z,5.97
2018-07-12T08:22:48.465Z,6.60
2018-07-12T08:25:15.393Z,7.40
2018-07-12T08:27:53.933Z,6.85
2018-07-12T08:30:20.832Z,7.07
2018-07-12T08:32:47.724Z,7.83
2018-07-12T08:35:15.643Z,7.90
2018-07-12T08:37:42.540Z,6.60
2018-07-12T08:40:09.436Z,6.33
2018-07-12T08:42:36.385Z,7.45
2018-07-12T08:45:03.231Z,7.47
2018-07-12T08:47:30.129Z,7.30
2018-07-12T08:49:57.078Z,6.60
2018-07-12T08:52:23.977Z,6.30
2018-07-12T08:54:50.900Z,6.50
2018-07-12T08:57:17.801Z,5.20
2018-07-12T08:59:44.715Z,5.47
2018-07-12T09:02:12.784Z,4.20
2018-07-12T09:04:39.715Z,3.70
2018-07-12T09:07:06.708Z,3.47
2018-07-12T09:09:33.606Z,3.17
2018-07-12T09:12:00.520Z,3.10
2018-07-12T09:14:28.325Z,2.70
2018-07-12T09:16:55.227Z,3.53
2018-07-12T09:19:22.127Z,3.37
2018-07-12T09:21:49.084Z,3.90
2018-07-12T09:24:15.957Z,5.67
2018-07-12T09:26:42.846Z,4.80
2018-07-12T09:29:09.776Z,5.03
2018-07-12T09:31:36.664Z,4.87
2018-07-12T09:34:03.583Z,5.20
2018-07-12T09:36:30.619Z,4.67
2018-07-12T09:38:57.529Z,4.50
2018-07-12T09:41:24.563Z,4.50
2018-07-12T09:43:52.170Z,4.00
2018-07-12T09:46:19.217Z,3.80
2018-07-12T09:48:47.453Z,3.87
2018-07-12T09:51:14.756Z,3.60
2018-07-12T09:53:42.722Z,3.20
2018-07-12T09:56:09.686Z,4.30
2018-07-12T09:58:36.525Z,3.60
2018-07-12T10:01:09.099Z,3.00
2018-07-12T10:03:41.844Z,3.27
2018-07-12T10:06:15.558Z,3.67
2018-07-12T10:08:54.990Z,3.50
2018-07-12T10:11:27.719Z,3.30
2018-07-12T10:13:57.426Z,2.70
2018-07-12T10:16:30.265Z,2.30
2018-07-12T10:18:57.186Z,2.53
2018-07-12T10:21:25.807Z,2.60
2018-07-12T10:23:52.753Z,2.87
2018-07-12T10:26:19.740Z,2.67
2018-07-12T10:28:46.763Z,2.67
2018-07-12T10:31:13.672Z,2.50
2018-07-12T10:33:40.571Z,2.40
2018-07-12T10:36:07.469Z,2.00
2018-07-12T10:38:34.409Z,2.50
2018-07-12T10:41:01.319Z,2.40
2018-07-12T10:43:28.227Z,2.87
2018-07-12T10:45:55.179Z,2.87
2018-07-12T10:48:22.098Z,2.40
2018-07-12T10:50:49.024Z,2.80
2018-07-12T10:53:16.226Z,3.00
2018-07-12T10:55:43.200Z,2.80
2018-07-12T10:58:10.095Z,2.70
2018-07-12T11:00:36.990Z,2.80
2018-07-12T11:03:03.891Z,2.87
2018-07-12T11:05:30.782Z,3.20
2018-07-12T11:07:57.727Z,2.40
2018-07-12T11:10:24.678Z,2.67
2018-07-12T11:13:03.365Z,2.83
2018-07-12T11:15:30.272Z,3.37
2018-07-12T11:17:57.161Z,3.53
2018-07-12T11:20:24.080Z,3.23
2018-07-12T11:22:51.044Z,3.50
2018-07-12T11:25:18.932Z,3.77
2018-07-12T11:27:45.818Z,3.97
2018-07-12T11:30:12.748Z,3.57
2018-07-12T11:32:39.641Z,3.60
2018-07-12T11:35:06.637Z,3.23
2018-07-12T11:37:33.519Z,3.40
2018-07-12T11:40:00.414Z,3.10
2018-07-12T11:42:27.323Z,3.03
2018-07-12T11:44:54.337Z,2.83
2018-07-12T11:47:21.222Z,3.77
2018-07-12T11:49:48.115Z,3.13
2018-07-12T11:52:15.251Z,2.87
2018-07-12T11:54:42.144Z,3.00
2018-07-12T11:57:09.039Z,3.23
2018-07-12T11:59:35.946Z,3.50
2018-07-12T12:02:02.929Z,3.40
2018-07-12T12:04:29.859Z,3.30
2018-07-12T12:06:56.830Z,3.50
2018-07-12T12:09:23.673Z,3.10
2018-07-12T12:11:51.084Z,3.00
2018-07-12T12:14:18.005Z,3.83
2018-07-12T12:16:44.919Z,2.83
2018-07-12T12:19:11.848Z,3.17
2018-07-12T12:21:38.802Z,2.87
2018-07-12T12:24:05.712Z,2.90
2018-07-12T12:26:32.604Z,2.57
2018-07-12T12:29:00.293Z,3.30
2018-07-12T12:31:29.252Z,2.87
2018-07-12T12:33:56.153Z,2.60
2018-07-12T12:36:23.117Z,3.40
2018-07-12T12:38:50.717Z,2.63
2018-07-12T12:41:17.827Z,3.00
2018-07-12T12:43:44.751Z,2.93
2018-07-12T12:46:11.695Z,3.00
2018-07-12T12:48:38.697Z,3.17
2018-07-12T12:51:05.699Z,2.53
2018-07-12T12:53:32.595Z,2.77
2018-07-12T12:55:59.503Z,2.70
2018-07-12T12:58:26.448Z,2.87
2018-07-12T13:00:53.344Z,2.80
2018-07-12T13:03:20.244Z,2.67
2018-07-12T13:05:47.148Z,2.53
2018-07-12T13:08:14.050Z,2.70
2018-07-12T13:10:41.971Z,3.00
2018-07-12T13:13:08.914Z,3.30
2018-07-12T13:15:35.852Z,3.07
2018-07-12T13:18:02.767Z,2.40
2018-07-12T13:20:29.675Z,2.90
2018-07-12T13:22:56.562Z,2.90
2018-07-12T13:25:23.498Z,2.72
2018-07-12T13:27:50.492Z,2.85
2018-07-12T13:30:17.595Z,2.73
2018-07-12T13:32:44.569Z,2.33
2018-07-12T13:35:11.472Z,2.63
2018-07-12T13:37:38.421Z,2.33
2018-07-12T13:40:05.339Z,2.37
2018-07-12T13:42:32.317Z,2.23
2018-07-12T13:44:59.264Z,2.40
2018-07-12T13:47:26.187Z,2.80
2018-07-12T13:49:53.096Z,2.60
2018-07-12T13:52:19.999Z,2.40
2018-07-12T13:54:46.965Z,2.60
2018-07-12T13:57:13.853Z,2.60
2018-07-12T13:59:40.779Z,2.60
2018-07-12T14:02:07.700Z,1.90
2018-07-12T14:04:34.675Z,2.80
2018-07-12T14:07:01.597Z,2.62
2018-07-12T14:09:28.488Z,2.80
2018-07-12T14:11:55.439Z,2.60
2018-07-12T14:14:22.350Z,2.10
2018-07-12T14:16:49.273Z,2.60
2018-07-12T14:19:16.188Z,2.80
2018-07-12T14:21:43.107Z,2.87
2018-07-12T14:24:10.012Z,2.40
2018-07-12T14:26:36.958Z,2.70
2018-07-12T14:29:03.832Z,2.47
2018-07-12T14:31:30.759Z,2.40
2018-07-12T14:33:57.635Z,2.40
2018-07-12T14:36:24.548Z,2.67
2018-07-12T14:38:51.520Z,2.40
2018-07-12T14:41:18.435Z,2.50
2018-07-12T14:43:45.322Z,2.30
2018-07-12T14:46:12.208Z,2.20
2018-07-12T14:48:39.123Z,2.20
2018-07-12T14:51:06.599Z,3.10
2018-07-12T14:53:33.491Z,2.53
2018-07-12T14:56:00.396Z,2.43
2018-07-12T14:58:27.294Z,2.10
2018-07-12T15:00:54.346Z,1.97
2018-07-12T15:03:21.296Z,2.00
2018-07-12T15:05:48.210Z,1.90
2018-07-12T15:08:15.208Z,2.30
2018-07-12T15:10:42.175Z,2.25
2018-07-12T15:13:09.087Z,2.33
2018-07-12T15:15:35.982Z,2.17
2018-07-12T15:18:02.917Z,2.40
2018-07-12T15:20:29.835Z,2.10
2018-07-12T15:22:57.487Z,2.40
2018-07-12T15:25:24.389Z,2.30
2018-07-12T15:27:54.475Z,2.37
2018-07-12T15:30:21.986Z,2.10
2018-07-12T15:32:48.867Z,2.30
2018-07-12T15:35:15.815Z,2.00
2018-07-12T15:37:42.724Z,1.90
2018-07-12T15:40:09.622Z,2.10
2018-07-12T15:42:36.532Z,1.70
2018-07-12T15:45:03.937Z,1.97
2018-07-12T15:47:30.881Z,1.80
2018-07-12T15:49:57.817Z,1.60
2018-07-12T15:52:24.717Z,1.70
2018-07-12T15:54:51.620Z,1.63
2018-07-12T15:57:18.563Z,2.20
2018-07-12T15:59:45.480Z,2.00
2018-07-12T16:02:12.404Z,2.30
2018-07-12T16:04:39.275Z,1.70
2018-07-12T16:07:07.275Z,1.73
2018-07-12T16:09:35.056Z,1.83
2018-07-12T16:12:02.034Z,1.50
2018-07-12T16:14:31.221Z,1.90
2018-07-12T16:16:59.149Z,1.80
2018-07-12T16:19:26.028Z,1.90
2018-07-12T16:21:52.940Z,1.40
2018-07-12T16:24:19.871Z,1.30
2018-07-12T16:26:46.823Z,1.47
2018-07-12T16:29:13.704Z,1.70
2018-07-12T16:31:40.624Z,1.77
2018-07-12T16:34:07.694Z,1.87
2018-07-12T16:36:35.555Z,1.80
2018-07-12T16:39:04.582Z,1.50
2018-07-12T16:41:32.543Z,1.90
2018-07-12T16:43:59.459Z,2.03
2018-07-12T16:46:26.401Z,1.40
2018-07-12T16:48:53.328Z,1.90
2018-07-12T16:51:20.215Z,2.10
2018-07-12T16:53:47.135Z,1.73
2018-07-12T16:56:14.023Z,1.90
2018-07-12T16:58:42.011Z,1.60
2018-07-12T17:01:08.927Z,1.60
2018-07-12T17:03:35.887Z,1.40
2018-07-12T17:06:02.842Z,1.30
2018-07-12T17:08:30.568Z,1.97
2018-07-12T17:10:57.486Z,1.70
2018-07-12T17:13:24.372Z,1.30
2018-07-12T17:15:52.482Z,1.40
2018-07-12T17:18:22.602Z,1.57
2018-07-12T17:20:49.590Z,1.60
2018-07-12T17:23:16.635Z,1.85
2018-07-12T17:25:43.696Z,1.60
2018-07-12T17:28:10.737Z,1.60
2018-07-12T17:30:37.693Z,1.72
2018-07-12T17:33:05.687Z,1.70
2018-07-12T17:35:33.695Z,1.80
2018-07-12T17:38:01.763Z,1.82
2018-07-12T17:40:28.758Z,1.57
2018-07-12T17:42:55.668Z,1.57
2018-07-12T17:45:25.588Z,1.73
2018-07-12T17:47:52.548Z,1.57
2018-07-12T17:50:19.524Z,1.70
2018-07-12T17:52:46.426Z,1.80
2018-07-12T17:55:22.071Z,2.10
2018-07-12T17:57:49.174Z,1.80
2018-07-12T18:00:16.179Z,1.57
2018-07-12T18:02:43.126Z,1.97
2018-07-12T18:05:16.722Z,1.60
2018-07-12T18:07:46.607Z,1.60
2018-07-12T18:10:13.694Z,1.65
2018-07-12T18:12:41.681Z,1.80
2018-07-12T18:15:08.710Z,1.30
2018-07-12T18:17:35.642Z,1.60
2018-07-12T18:20:05.962Z,1.70
2018-07-12T18:22:32.991Z,1.70
2018-07-12T18:24:59.905Z,1.80
2018-07-12T18:27:26.798Z,1.80
2018-07-12T18:29:53.807Z,1.87
2018-07-12T18:32:20.840Z,2.27
2018-07-12T18:34:49.860Z,2.40
2018-07-12T18:37:18.570Z,1.90
2018-07-12T18:39:45.573Z,1.70
2018-07-12T18:42:12.691Z,1.87
2018-07-12T18:44:39.594Z,2.10
2018-07-12T18:47:06.955Z,2.00
2018-07-12T18:49:34.219Z,2.17
2018-07-12T18:52:01.257Z,2.10
2018-07-12T18:54:29.193Z,2.10
2018-07-12T18:56:56.084Z,2.50
2018-07-12T18:59:23.847Z,1.93
2018-07-12T19:01:53.800Z,1.90
2018-07-12T19:04:20.703Z,2.17
2018-07-12T19:06:50.748Z,2.50
2018-07-12T19:09:17.898Z,2.37
2018-07-12T19:11:45.876Z,2.42
2018-07-12T19:14:12.882Z,2.60
2018-07-12T19:16:39.826Z,2.17
2018-07-12T19:19:08.149Z,2.60
2018-07-12T19:21:36.173Z,2.37
2018-07-12T19:24:03.173Z,2.43
2018-07-12T19:26:30.247Z,2.98
2018-07-12T19:28:57.157Z,2.43
2018-07-12T19:31:25.124Z,2.70
2018-07-12T19:33:52.105Z,2.63
2018-07-12T19:36:19.677Z,2.60
2018-07-12T19:38:46.758Z,3.57
2018-07-12T19:41:13.727Z,3.17
2018-07-12T19:43:40.714Z,3.23
2018-07-12T19:46:14.535Z,2.50
2018-07-12T19:48:48.989Z,2.23
2018-07-12T19:51:18.990Z,2.70
2018-07-12T19:53:45.876Z,2.80
2018-07-12T19:56:12.792Z,2.40
2018-07-12T19:58:39.681Z,2.90
2018-07-12T20:01:06.688Z,2.45
2018-07-12T20:03:33.677Z,2.60
2018-07-12T20:06:00.524Z,2.20
2018-07-12T20:08:27.485Z,2.50
2018-07-12T20:11:01.974Z,2.90
2018-07-12T20:13:28.952Z,2.83
2018-07-12T20:15:55.872Z,3.30
2018-07-12T20:18:22.842Z,3.00
2018-07-12T20:20:49.760Z,2.63
2018-07-12T20:23:16.711Z,3.50
2018-07-12T20:25:43.607Z,3.10
2018-07-12T20:28:16.535Z,3.13
2018-07-12T20:30:43.482Z,3.62
2018-07-12T20:33:10.421Z,3.57
2018-07-12T20:35:37.335Z,3.43
2018-07-12T20:38:04.271Z,4.03
2018-07-12T20:40:31.203Z,4.27
2018-07-12T20:42:58.146Z,3.43
2018-07-12T20:45:25.131Z,4.13
2018-07-12T20:47:52.161Z,3.83
2018-07-12T20:50:19.262Z,4.73
2018-07-12T20:52:45.995Z,4.67
2018-07-12T20:55:12.979Z,4.90
2018-07-12T20:57:39.833Z,4.90
2018-07-12T21:00:06.762Z,3.97
2018-07-12T21:02:34.054Z,4.60
2018-07-12T21:05:00.951Z,4.37
2018-07-12T21:07:27.871Z,3.80
2018-07-12T21:09:55.769Z,3.90
2018-07-12T21:12:22.659Z,4.60
2018-07-12T21:14:49.594Z,4.40
2018-07-12T21:17:16.493Z,4.17
2018-07-12T21:19:43.377Z,4.50
2018-07-12T21:22:10.277Z,5.20
2018-07-12T21:24:37.177Z,4.57
2018-07-12T21:27:04.107Z,5.33
2018-07-12T21:29:31.024Z,4.80
2018-07-12T21:31:58.044Z,4.80
2018-07-12T21:34:27.959Z,4.97
2018-07-12T21:36:54.848Z,5.60
2018-07-12T21:39:21.800Z,5.10
2018-07-12T21:41:48.715Z,4.70
2018-07-12T21:44:15.605Z,4.73
2018-07-12T21:46:42.508Z,5.10
2018-07-12T21:49:09.405Z,4.93
2018-07-12T21:51:36.355Z,5.00
2018-07-12T21:54:03.258Z,5.43
2018-07-12T21:56:30.205Z,4.63
2018-07-12T21:58:57.119Z,4.53
2018-07-12T22:01:24.049Z,5.83
2018-07-12T22:03:50.956Z,5.07
2018-07-12T22:06:26.120Z,5.63
2018-07-12T22:08:53.635Z,5.25
2018-07-12T22:11:20.525Z,5.10
2018-07-12T22:13:47.455Z,5.27
2018-07-12T22:16:14.384Z,5.10
2018-07-12T22:18:42.761Z,5.30
2018-07-12T22:21:09.686Z,4.60
2018-07-12T22:23:36.681Z,5.70
2018-07-12T22:26:03.569Z,5.23
2018-07-12T22:28:31.044Z,5.70
2018-07-12T22:30:57.945Z,4.83
2018-07-12T22:33:24.865Z,5.30
2018-07-12T22:35:51.757Z,5.70
2018-07-12T22:38:18.647Z,4.97
2018-07-12T22:40:45.641Z,5.40
2018-07-12T22:43:12.546Z,5.00
2018-07-12T22:45:39.450Z,4.60
2018-07-12T22:48:06.369Z,6.30
2018-07-12T22:50:33.246Z,6.10
2018-07-12T22:53:00.139Z,4.90
2018-07-12T22:55:27.026Z,6.00
2018-07-12T22:57:53.981Z,5.70
2018-07-12T23:00:20.878Z,5.20
2018-07-12T23:02:47.780Z,4.63
2018-07-12T23:05:14.664Z,5.20
2018-07-12T23:07:41.683Z,5.00
2018-07-12T23:10:08.639Z,4.87
2018-07-12T23:12:35.539Z,5.20
2018-07-12T23:15:02.496Z,5.43
2018-07-12T23:17:29.395Z,5.50
2018-07-12T23:19:56.312Z,4.57
2018-07-12T23:22:23.258Z,5.40
2018-07-12T23:24:50.238Z,5.10
2018-07-12T23:27:17.210Z,5.20
2018-07-12T23:29:44.482Z,5.03
2018-07-12T23:32:11.403Z,5.47
2018-07-12T23:34:38.364Z,5.53
2018-07-12T23:37:05.295Z,4.67
2018-07-12T23:39:32.191Z,6.30
2018-07-12T23:41:59.090Z,5.13
2018-07-12T23:44:25.994Z,5.40
2018-07-12T23:46:52.854Z,5.80
2018-07-12T23:49:20.143Z,5.50
2018-07-12T23:51:47.039Z,5.60
2018-07-12T23:54:13.983Z,5.13
2018-07-12T23:56:40.903Z,5.40
2018-07-12T23:59:07.808Z,5.43
